sensor_id;sensor_type;location;lat;lon;timestamp;P1;durP1;ratioP1;P2;durP2;ratioP2
30729;SDS011;17476;48.458;7.928;2023-06-05T00:01:39;0.30;;;0.30;;
30729;SDS011;17476;48.458;7.928;2023-06-05T00:04:05;0.20;;;0.20;;
30729;SDS011;17476;48.458;7.928;2023-06-05T00:06:31;0.30;;;0.30;;
30729;SDS011;17476;48.458;7.928;2023-06-05T00:08:57;0.30;;;0.30;;
30729;SDS011;17476;48.458;7.928;2023-06-05T00:11:23;0.20;;;0.20;;
30729;SDS011;17476;48.458;7.928;2023-06-05T00:13:49;0.30;;;0.30;;
30729;SDS011;17476;48.458;7.928;2023-06-05T00:16:15;0.30;;;0.30;;
30729;SDS011;17476;48.458;7.928;2023-06-05T00:18:41;0.30;;;0.30;;
30729;SDS011;17476;48.458;7.928;2023-06-05T00:21:09;0.20;;;0.20;;
30729;SDS011;17476;48.458;7.928;2023-06-05T00:23:35;0.30;;;0.30;;
30729;SDS011;17476;48.458;7.928;2023-06-05T00:26:00;0.20;;;0.20;;
30729;SDS011;17476;48.458;7.928;2023-06-05T00:28:26;0.30;;;0.30;;
30729;SDS011;17476;48.458;7.928;2023-06-05T00:30:52;0.20;;;0.20;;
30729;SDS011;17476;48.458;7.928;2023-06-05T00:33:18;0.20;;;0.20;;
30729;SDS011;17476;48.458;7.928;2023-06-05T00:35:44;0.20;;;0.20;;
30729;SDS011;17476;48.458;7.928;2023-06-05T00:38:10;0.20;;;0.20;;
30729;SDS011;17476;48.458;7.928;2023-06-05T00:40:36;0.30;;;0.30;;
30729;SDS011;17476;48.458;7.928;2023-06-05T00:43:02;0.10;;;0.10;;
30729;SDS011;17476;48.458;7.928;2023-06-05T00:45:28;0.30;;;0.30;;
30729;SDS011;17476;48.458;7.928;2023-06-05T00:47:54;0.30;;;0.30;;
30729;SDS011;17476;48.458;7.928;2023-06-05T00:50:20;0.20;;;0.20;;
30729;SDS011;17476;48.458;7.928;2023-06-05T00:52:46;0.20;;;0.20;;
30729;SDS011;17476;48.458;7.928;2023-06-05T00:55:14;0.30;;;0.30;;
30729;SDS011;17476;48.458;7.928;2023-06-05T00:57:40;0.30;;;0.30;;
30729;SDS011;17476;48.458;7.928;2023-06-05T01:00:06;0.20;;;0.20;;
30729;SDS011;17476;48.458;7.928;2023-06-05T01:02:37;0.30;;;0.30;;
30729;SDS011;17476;48.458;7.928;2023-06-05T01:05:05;0.20;;;0.20;;
30729;SDS011;17476;48.458;7.928;2023-06-05T01:07:32;0.20;;;0.20;;
30729;SDS011;17476;48.458;7.928;2023-06-05T01:10:03;0.30;;;0.30;;
30729;SDS011;17476;48.458;7.928;2023-06-05T01:12:36;0.20;;;0.20;;
30729;SDS011;17476;48.458;7.928;2023-06-05T01:15:11;0.30;;;0.30;;
30729;SDS011;17476;48.458;7.928;2023-06-05T01:17:37;0.30;;;0.30;;
30729;SDS011;17476;48.458;7.928;2023-06-05T01:20:05;0.30;;;0.30;;
30729;SDS011;17476;48.458;7.928;2023-06-05T01:22:34;0.30;;;0.30;;
30729;SDS011;17476;48.458;7.928;2023-06-05T01:25:03;0.20;;;0.20;;
30729;SDS011;17476;48.458;7.928;2023-06-05T01:27:41;0.20;;;0.20;;
30729;SDS011;17476;48.458;7.928;2023-06-05T01:30:24;0.20;;;0.20;;
30729;SDS011;17476;48.458;7.928;2023-06-05T01:33:08;0.20;;;0.20;;
30729;SDS011;17476;48.458;7.928;2023-06-05T01:35:50;0.20;;;0.20;;
30729;SDS011;17476;48.458;7.928;2023-06-05T01:38:19;0.20;;;0.20;;
30729;SDS011;17476;48.458;7.928;2023-06-05T01:40:49;0.30;;;0.30;;
30729;SDS011;17476;48.458;7.928;2023-06-05T01:43:15;0.20;;;0.20;;
30729;SDS011;17476;48.458;7.928;2023-06-05T01:45:43;0.30;;;0.30;;
30729;SDS011;17476;48.458;7.928;2023-06-05T01:48:10;0.30;;;0.30;;
30729;SDS011;17476;48.458;7.928;2023-06-05T01:50:36;0.30;;;0.30;;
30729;SDS011;17476;48.458;7.928;2023-06-05T01:53:03;0.30;;;0.30;;
30729;SDS011;17476;48.458;7.928;2023-06-05T01:55:30;0.20;;;0.20;;
30729;SDS011;17476;48.458;7.928;2023-06-05T01:57:56;0.30;;;0.30;;
30729;SDS011;17476;48.458;7.928;2023-06-05T02:00:21;0.40;;;0.40;;
30729;SDS011;17476;48.458;7.928;2023-06-05T02:02:48;0.30;;;0.30;;
30729;SDS011;17476;48.458;7.928;2023-06-05T02:05:16;0.33;;;0.33;;
30729;SDS011;17476;48.458;7.928;2023-06-05T02:07:45;0.20;;;0.20;;
30729;SDS011;17476;48.458;7.928;2023-06-05T02:10:23;0.30;;;0.30;;
30729;SDS011;17476;48.458;7.928;2023-06-05T02:12:50;0.20;;;0.20;;
30729;SDS011;17476;48.458;7.928;2023-06-05T02:15:16;0.30;;;0.30;;
30729;SDS011;17476;48.458;7.928;2023-06-05T02:17:42;0.20;;;0.20;;
30729;SDS011;17476;48.458;7.928;2023-06-05T02:20:15;0.30;;;0.30;;
30729;SDS011;17476;48.458;7.928;2023-06-05T02:22:42;0.30;;;0.30;;
30729;SDS011;17476;48.458;7.928;2023-06-05T02:25:09;0.30;;;0.30;;
30729;SDS011;17476;48.458;7.928;2023-06-05T02:27:38;0.27;;;0.27;;
30729;SDS011;17476;48.458;7.928;2023-06-05T02:30:04;0.30;;;0.30;;
30729;SDS011;17476;48.458;7.928;2023-06-05T02:32:31;0.30;;;0.30;;
30729;SDS011;17476;48.458;7.928;2023-06-05T02:34:57;0.30;;;0.30;;
30729;SDS011;17476;48.458;7.928;2023-06-05T02:37:24;0.40;;;0.40;;
30729;SDS011;17476;48.458;7.928;2023-06-05T02:39:51;0.30;;;0.30;;
30729;SDS011;17476;48.458;7.928;2023-06-05T02:42:17;0.30;;;0.30;;
30729;SDS011;17476;48.458;7.928;2023-06-05T02:44:44;0.30;;;0.30;;
30729;SDS011;17476;48.458;7.928;2023-06-05T02:47:10;0.30;;;0.30;;
30729;SDS011;17476;48.458;7.928;2023-06-05T02:49:37;0.20;;;0.20;;
30729;SDS011;17476;48.458;7.928;2023-06-05T02:52:03;0.30;;;0.30;;
30729;SDS011;17476;48.458;7.928;2023-06-05T02:54:29;0.30;;;0.30;;
30729;SDS011;17476;48.458;7.928;2023-06-05T02:56:55;0.30;;;0.30;;
30729;SDS011;17476;48.458;7.928;2023-06-05T02:59:24;0.30;;;0.30;;
30729;SDS011;17476;48.458;7.928;2023-06-05T03:01:50;0.30;;;0.30;;
30729;SDS011;17476;48.458;7.928;2023-06-05T03:04:17;0.30;;;0.30;;
30729;SDS011;17476;48.458;7.928;2023-06-05T03:06:49;0.30;;;0.30;;
30729;SDS011;17476;48.458;7.928;2023-06-05T03:09:15;0.30;;;0.30;;
30729;SDS011;17476;48.458;7.928;2023-06-05T03:11:44;0.30;;;0.30;;
30729;SDS011;17476;48.458;7.928;2023-06-05T03:14:10;0.30;;;0.30;;
30729;SDS011;17476;48.458;7.928;2023-06-05T03:16:36;0.20;;;0.20;;
30729;SDS011;17476;48.458;7.928;2023-06-05T03:19:09;0.40;;;0.40;;
30729;SDS011;17476;48.458;7.928;2023-06-05T03:21:36;0.30;;;0.30;;
30729;SDS011;17476;48.458;7.928;2023-06-05T03:24:03;0.40;;;0.40;;
30729;SDS011;17476;48.458;7.928;2023-06-05T03:26:33;0.40;;;0.40;;
30729;SDS011;17476;48.458;7.928;2023-06-05T03:29:00;0.20;;;0.20;;
30729;SDS011;17476;48.458;7.928;2023-06-05T03:31:26;0.30;;;0.30;;
30729;SDS011;17476;48.458;7.928;2023-06-05T03:33:51;0.40;;;0.40;;
30729;SDS011;17476;48.458;7.928;2023-06-05T03:36:17;0.30;;;0.30;;
30729;SDS011;17476;48.458;7.928;2023-06-05T03:38:44;0.40;;;0.40;;
30729;SDS011;17476;48.458;7.928;2023-06-05T03:41:10;0.30;;;0.30;;
30729;SDS011;17476;48.458;7.928;2023-06-05T03:43:36;0.30;;;0.30;;
30729;SDS011;17476;48.458;7.928;2023-06-05T03:46:02;0.30;;;0.30;;
30729;SDS011;17476;48.458;7.928;2023-06-05T03:48:29;0.37;;;0.37;;
30729;SDS011;17476;48.458;7.928;2023-06-05T03:50:55;0.37;;;0.37;;
30729;SDS011;17476;48.458;7.928;2023-06-05T03:53:22;0.40;;;0.40;;
30729;SDS011;17476;48.458;7.928;2023-06-05T03:55:48;0.40;;;0.40;;
30729;SDS011;17476;48.458;7.928;2023-06-05T03:58:17;0.30;;;0.30;;
30729;SDS011;17476;48.458;7.928;2023-06-05T04:00:44;0.20;;;0.20;;
30729;SDS011;17476;48.458;7.928;2023-06-05T04:03:14;0.30;;;0.30;;
30729;SDS011;17476;48.458;7.928;2023-06-05T04:05:40;0.30;;;0.30;;
30729;SDS011;17476;48.458;7.928;2023-06-05T04:08:07;0.40;;;0.40;;
30729;SDS011;17476;48.458;7.928;2023-06-05T04:10:34;0.30;;;0.30;;
30729;SDS011;17476;48.458;7.928;2023-06-05T04:13:01;0.40;;;0.40;;
30729;SDS011;17476;48.458;7.928;2023-06-05T04:15:28;0.30;;;0.30;;
30729;SDS011;17476;48.458;7.928;2023-06-05T04:17:54;0.30;;;0.30;;
30729;SDS011;17476;48.458;7.928;2023-06-05T04:20:21;0.37;;;0.37;;
30729;SDS011;17476;48.458;7.928;2023-06-05T04:22:47;0.30;;;0.30;;
30729;SDS011;17476;48.458;7.928;2023-06-05T04:25:13;0.30;;;0.30;;
30729;SDS011;17476;48.458;7.928;2023-06-05T04:27:40;0.40;;;0.40;;
30729;SDS011;17476;48.458;7.928;2023-06-05T04:30:10;0.30;;;0.30;;
30729;SDS011;17476;48.458;7.928;2023-06-05T04:32:38;0.30;;;0.30;;
30729;SDS011;17476;48.458;7.928;2023-06-05T04:35:07;0.20;;;0.20;;
30729;SDS011;17476;48.458;7.928;2023-06-05T04:37:34;0.27;;;0.27;;
30729;SDS011;17476;48.458;7.928;2023-06-05T04:40:02;0.20;;;0.20;;
30729;SDS011;17476;48.458;7.928;2023-06-05T04:42:34;0.20;;;0.20;;
30729;SDS011;17476;48.458;7.928;2023-06-05T04:45:05;0.30;;;0.30;;
30729;SDS011;17476;48.458;7.928;2023-06-05T04:47:35;0.30;;;0.30;;
30729;SDS011;17476;48.458;7.928;2023-06-05T04:50:05;0.20;;;0.20;;
30729;SDS011;17476;48.458;7.928;2023-06-05T04:52:31;0.40;;;0.40;;
30729;SDS011;17476;48.458;7.928;2023-06-05T04:55:00;0.30;;;0.30;;
30729;SDS011;17476;48.458;7.928;2023-06-05T04:57:26;0.30;;;0.30;;
30729;SDS011;17476;48.458;7.928;2023-06-05T04:59:53;0.40;;;0.40;;
30729;SDS011;17476;48.458;7.928;2023-06-05T05:02:19;0.33;;;0.33;;
30729;SDS011;17476;48.458;7.928;2023-06-05T05:04:46;0.20;;;0.20;;
30729;SDS011;17476;48.458;7.928;2023-06-05T05:07:12;0.23;;;0.23;;
30729;SDS011;17476;48.458;7.928;2023-06-05T05:09:40;0.30;;;0.30;;
30729;SDS011;17476;48.458;7.928;2023-06-05T05:12:07;0.20;;;0.20;;
30729;SDS011;17476;48.458;7.928;2023-06-05T05:14:34;0.30;;;0.30;;
30729;SDS011;17476;48.458;7.928;2023-06-05T05:17:01;0.30;;;0.30;;
30729;SDS011;17476;48.458;7.928;2023-06-05T05:19:28;0.30;;;0.30;;
30729;SDS011;17476;48.458;7.928;2023-06-05T05:21:54;0.30;;;0.30;;
30729;SDS011;17476;48.458;7.928;2023-06-05T05:24:20;0.30;;;0.30;;
30729;SDS011;17476;48.458;7.928;2023-06-05T05:26:47;0.20;;;0.20;;
30729;SDS011;17476;48.458;7.928;2023-06-05T05:29:14;0.40;;;0.40;;
30729;SDS011;17476;48.458;7.928;2023-06-05T05:31:39;0.30;;;0.30;;
30729;SDS011;17476;48.458;7.928;2023-06-05T05:34:05;0.30;;;0.30;;
30729;SDS011;17476;48.458;7.928;2023-06-05T05:36:31;0.20;;;0.20;;
30729;SDS011;17476;48.458;7.928;2023-06-05T05:39:01;0.30;;;0.30;;
30729;SDS011;17476;48.458;7.928;2023-06-05T05:41:28;0.30;;;0.30;;
30729;SDS011;17476;48.458;7.928;2023-06-05T05:43:54;0.20;;;0.20;;
30729;SDS011;17476;48.458;7.928;2023-06-05T05:46:20;0.20;;;0.20;;
30729;SDS011;17476;48.458;7.928;2023-06-05T05:48:46;0.30;;;0.30;;
30729;SDS011;17476;48.458;7.928;2023-06-05T05:51:11;0.20;;;0.20;;
30729;SDS011;17476;48.458;7.928;2023-06-05T05:53:37;0.20;;;0.20;;
30729;SDS011;17476;48.458;7.928;2023-06-05T05:56:03;0.20;;;0.20;;
30729;SDS011;17476;48.458;7.928;2023-06-05T05:58:29;0.20;;;0.20;;
30729;SDS011;17476;48.458;7.928;2023-06-05T06:00:56;0.20;;;0.20;;
30729;SDS011;17476;48.458;7.928;2023-06-05T06:03:24;0.20;;;0.20;;
30729;SDS011;17476;48.458;7.928;2023-06-05T06:05:51;0.20;;;0.20;;
30729;SDS011;17476;48.458;7.928;2023-06-05T06:08:18;0.20;;;0.20;;
30729;SDS011;17476;48.458;7.928;2023-06-05T06:10:44;0.13;;;0.13;;
30729;SDS011;17476;48.458;7.928;2023-06-05T06:13:11;0.10;;;0.10;;
30729;SDS011;17476;48.458;7.928;2023-06-05T06:15:37;0.20;;;0.20;;
30729;SDS011;17476;48.458;7.928;2023-06-05T06:18:04;0.20;;;0.20;;
30729;SDS011;17476;48.458;7.928;2023-06-05T06:20:31;0.20;;;0.20;;
30729;SDS011;17476;48.458;7.928;2023-06-05T06:22:58;0.10;;;0.10;;
30729;SDS011;17476;48.458;7.928;2023-06-05T06:25:25;0.20;;;0.20;;
30729;SDS011;17476;48.458;7.928;2023-06-05T06:27:57;0.20;;;0.20;;
30729;SDS011;17476;48.458;7.928;2023-06-05T06:30:25;0.10;;;0.10;;
30729;SDS011;17476;48.458;7.928;2023-06-05T06:32:52;0.10;;;0.10;;
30729;SDS011;17476;48.458;7.928;2023-06-05T06:35:22;0.10;;;0.10;;
30729;SDS011;17476;48.458;7.928;2023-06-05T06:37:52;0.10;;;0.10;;
30729;SDS011;17476;48.458;7.928;2023-06-05T06:40:22;0.20;;;0.20;;
30729;SDS011;17476;48.458;7.928;2023-06-05T06:42:48;0.10;;;0.10;;
30729;SDS011;17476;48.458;7.928;2023-06-05T06:45:15;0.10;;;0.10;;
30729;SDS011;17476;48.458;7.928;2023-06-05T06:47:42;0.10;;;0.10;;
30729;SDS011;17476;48.458;7.928;2023-06-05T06:50:09;0.10;;;0.10;;
30729;SDS011;17476;48.458;7.928;2023-06-05T06:52:35;0.10;;;0.10;;
30729;SDS011;17476;48.458;7.928;2023-06-05T06:55:01;0.10;;;0.10;;
30729;SDS011;17476;48.458;7.928;2023-06-05T06:57:27;0.10;;;0.10;;
30729;SDS011;17476;48.458;7.928;2023-06-05T06:59:52;0.10;;;0.10;;
30729;SDS011;17476;48.458;7.928;2023-06-05T07:02:19;0.10;;;0.10;;
30729;SDS011;17476;48.458;7.928;2023-06-05T07:04:48;0.00;;;0.00;;
30729;SDS011;17476;48.458;7.928;2023-06-05T07:07:15;0.10;;;0.10;;
30729;SDS011;17476;48.458;7.928;2023-06-05T07:09:43;0.00;;;0.00;;
30729;SDS011;17476;48.458;7.928;2023-06-05T07:12:13;0.00;;;0.00;;
30729;SDS011;17476;48.458;7.928;2023-06-05T07:14:40;0.10;;;0.10;;
30729;SDS011;17476;48.458;7.928;2023-06-05T07:17:06;0.00;;;0.00;;
30729;SDS011;17476;48.458;7.928;2023-06-05T07:19:32;0.00;;;0.00;;
30729;SDS011;17476;48.458;7.928;2023-06-05T07:22:01;0.10;;;0.10;;
30729;SDS011;17476;48.458;7.928;2023-06-05T07:24:32;0.10;;;0.10;;
30729;SDS011;17476;48.458;7.928;2023-06-05T07:27:03;0.00;;;0.00;;
30729;SDS011;17476;48.458;7.928;2023-06-05T07:29:30;0.10;;;0.10;;
30729;SDS011;17476;48.458;7.928;2023-06-05T07:31:57;0.10;;;0.10;;
30729;SDS011;17476;48.458;7.928;2023-06-05T07:34:24;0.00;;;0.00;;
30729;SDS011;17476;48.458;7.928;2023-06-05T07:36:51;0.10;;;0.10;;
30729;SDS011;17476;48.458;7.928;2023-06-05T07:39:19;0.00;;;0.00;;
30729;SDS011;17476;48.458;7.928;2023-06-05T07:41:46;0.00;;;0.00;;
30729;SDS011;17476;48.458;7.928;2023-06-05T07:44:16;0.00;;;0.00;;
30729;SDS011;17476;48.458;7.928;2023-06-05T07:46:45;0.00;;;0.00;;
30729;SDS011;17476;48.458;7.928;2023-06-05T07:49:12;0.00;;;0.00;;
30729;SDS011;17476;48.458;7.928;2023-06-05T07:51:40;0.00;;;0.00;;
30729;SDS011;17476;48.458;7.928;2023-06-05T07:54:08;0.00;;;0.00;;
30729;SDS011;17476;48.458;7.928;2023-06-05T07:56:35;0.10;;;0.10;;
30729;SDS011;17476;48.458;7.928;2023-06-05T07:59:03;0.00;;;0.00;;
30729;SDS011;17476;48.458;7.928;2023-06-05T08:01:30;0.00;;;0.00;;
30729;SDS011;17476;48.458;7.928;2023-06-05T08:04:01;0.00;;;0.00;;
30729;SDS011;17476;48.458;7.928;2023-06-05T08:06:28;0.00;;;0.00;;
30729;SDS011;17476;48.458;7.928;2023-06-05T08:08:55;0.10;;;0.10;;
30729;SDS011;17476;48.458;7.928;2023-06-05T08:11:21;0.10;;;0.10;;
30729;SDS011;17476;48.458;7.928;2023-06-05T08:13:47;0.00;;;0.00;;
30729;SDS011;17476;48.458;7.928;2023-06-05T08:16:13;0.07;;;0.07;;
30729;SDS011;17476;48.458;7.928;2023-06-05T08:18:40;0.00;;;0.00;;
30729;SDS011;17476;48.458;7.928;2023-06-05T08:21:07;0.00;;;0.00;;
30729;SDS011;17476;48.458;7.928;2023-06-05T08:23:33;0.00;;;0.00;;
30729;SDS011;17476;48.458;7.928;2023-06-05T08:25:59;0.00;;;0.00;;
30729;SDS011;17476;48.458;7.928;2023-06-05T08:28:25;0.00;;;0.00;;
30729;SDS011;17476;48.458;7.928;2023-06-05T08:30:50;0.00;;;0.00;;
30729;SDS011;17476;48.458;7.928;2023-06-05T08:33:19;0.00;;;0.00;;
30729;SDS011;17476;48.458;7.928;2023-06-05T08:35:46;0.00;;;0.00;;
30729;SDS011;17476;48.458;7.928;2023-06-05T08:38:11;0.00;;;0.00;;
30729;SDS011;17476;48.458;7.928;2023-06-05T08:40:37;0.00;;;0.00;;
30729;SDS011;17476;48.458;7.928;2023-06-05T08:43:04;0.00;;;0.00;;
30729;SDS011;17476;48.458;7.928;2023-06-05T08:45:31;0.00;;;0.00;;
30729;SDS011;17476;48.458;7.928;2023-06-05T08:47:58;0.00;;;0.00;;
30729;SDS011;17476;48.458;7.928;2023-06-05T08:50:28;0.00;;;0.00;;
30729;SDS011;17476;48.458;7.928;2023-06-05T08:53:01;0.00;;;0.00;;
30729;SDS011;17476;48.458;7.928;2023-06-05T08:55:27;0.00;;;0.00;;
30729;SDS011;17476;48.458;7.928;2023-06-05T08:57:55;0.00;;;0.00;;
30729;SDS011;17476;48.458;7.928;2023-06-05T09:00:22;0.00;;;0.00;;
30729;SDS011;17476;48.458;7.928;2023-06-05T09:02:48;0.00;;;0.00;;
30729;SDS011;17476;48.458;7.928;2023-06-05T09:05:15;0.00;;;0.00;;
30729;SDS011;17476;48.458;7.928;2023-06-05T09:07:42;0.00;;;0.00;;
30729;SDS011;17476;48.458;7.928;2023-06-05T09:10:24;0.00;;;0.00;;
30729;SDS011;17476;48.458;7.928;2023-06-05T09:13:02;0.00;;;0.00;;
30729;SDS011;17476;48.458;7.928;2023-06-05T09:15:30;0.00;;;0.00;;
30729;SDS011;17476;48.458;7.928;2023-06-05T09:18:05;0.00;;;0.00;;
30729;SDS011;17476;48.458;7.928;2023-06-05T09:20:33;0.00;;;0.00;;
30729;SDS011;17476;48.458;7.928;2023-06-05T09:23:02;0.00;;;0.00;;
30729;SDS011;17476;48.458;7.928;2023-06-05T09:25:43;0.00;;;0.00;;
30729;SDS011;17476;48.458;7.928;2023-06-05T09:28:16;0.00;;;0.00;;
30729;SDS011;17476;48.458;7.928;2023-06-05T09:31:01;0.00;;;0.00;;
30729;SDS011;17476;48.458;7.928;2023-06-05T09:33:32;0.00;;;0.00;;
30729;SDS011;17476;48.458;7.928;2023-06-05T09:38:38;0.00;;;0.00;;
30729;SDS011;17476;48.458;7.928;2023-06-05T09:41:06;0.00;;;0.00;;
30729;SDS011;17476;48.458;7.928;2023-06-05T09:43:39;0.00;;;0.00;;
30729;SDS011;17476;48.458;7.928;2023-06-05T09:46:23;0.00;;;0.00;;
30729;SDS011;17476;48.458;7.928;2023-06-05T09:48:53;0.00;;;0.00;;
30729;SDS011;17476;48.458;7.928;2023-06-05T09:51:24;0.00;;;0.00;;
30729;SDS011;17476;48.458;7.928;2023-06-05T09:53:50;0.00;;;0.00;;
30729;SDS011;17476;48.458;7.928;2023-06-05T09:56:17;0.00;;;0.00;;
30729;SDS011;17476;48.458;7.928;2023-06-05T09:58:48;0.00;;;0.00;;
30729;SDS011;17476;48.458;7.928;2023-06-05T10:01:18;0.00;;;0.00;;
30729;SDS011;17476;48.458;7.928;2023-06-05T10:03:53;0.00;;;0.00;;
30729;SDS011;17476;48.458;7.928;2023-06-05T10:06:28;0.00;;;0.00;;
30729;SDS011;17476;48.458;7.928;2023-06-05T10:08:55;0.00;;;0.00;;
30729;SDS011;17476;48.458;7.928;2023-06-05T10:11:23;0.00;;;0.00;;
30729;SDS011;17476;48.458;7.928;2023-06-05T10:13:51;0.00;;;0.00;;
30729;SDS011;17476;48.458;7.928;2023-06-05T10:16:19;0.00;;;0.00;;
30729;SDS011;17476;48.458;7.928;2023-06-05T10:18:46;0.00;;;0.00;;
30729;SDS011;17476;48.458;7.928;2023-06-05T10:21:16;0.00;;;0.00;;
30729;SDS011;17476;48.458;7.928;2023-06-05T10:26:34;0.00;;;0.00;;
30729;SDS011;17476;48.458;7.928;2023-06-05T10:31:59;0.00;;;0.00;;
30729;SDS011;17476;48.458;7.928;2023-06-05T10:40:43;0.00;;;0.00;;
30729;SDS011;17476;48.458;7.928;2023-06-05T10:43:33;0.00;;;0.00;;
30729;SDS011;17476;48.458;7.928;2023-06-05T10:46:31;0.00;;;0.00;;
30729;SDS011;17476;48.458;7.928;2023-06-05T10:51:44;0.00;;;0.00;;
30729;SDS011;17476;48.458;7.928;2023-06-05T10:57:02;0.00;;;0.00;;
30729;SDS011;17476;48.458;7.928;2023-06-05T10:59:32;0.00;;;0.00;;
30729;SDS011;17476;48.458;7.928;2023-06-05T11:07:13;0.00;;;0.00;;
30729;SDS011;17476;48.458;7.928;2023-06-05T11:15:14;0.00;;;0.00;;
30729;SDS011;17476;48.458;7.928;2023-06-05T11:17:42;0.00;;;0.00;;
30729;SDS011;17476;48.458;7.928;2023-06-05T11:27:52;0.00;;;0.00;;
30729;SDS011;17476;48.458;7.928;2023-06-05T11:30:25;0.00;;;0.00;;
30729;SDS011;17476;48.458;7.928;2023-06-05T11:33:08;0.00;;;0.00;;
30729;SDS011;17476;48.458;7.928;2023-06-05T11:35:41;0.00;;;0.00;;
30729;SDS011;17476;48.458;7.928;2023-06-05T11:38:20;0.00;;;0.00;;
30729;SDS011;17476;48.458;7.928;2023-06-05T11:40:47;0.00;;;0.00;;
30729;SDS011;17476;48.458;7.928;2023-06-05T11:43:13;0.00;;;0.00;;
30729;SDS011;17476;48.458;7.928;2023-06-05T11:45:41;0.00;;;0.00;;
30729;SDS011;17476;48.458;7.928;2023-06-05T11:48:17;0.00;;;0.00;;
30729;SDS011;17476;48.458;7.928;2023-06-05T11:50:56;0.00;;;0.00;;
30729;SDS011;17476;48.458;7.928;2023-06-05T11:53:25;0.00;;;0.00;;
30729;SDS011;17476;48.458;7.928;2023-06-05T11:55:53;0.00;;;0.00;;
30729;SDS011;17476;48.458;7.928;2023-06-05T11:58:32;0.00;;;0.00;;
30729;SDS011;17476;48.458;7.928;2023-06-05T12:01:07;0.00;;;0.00;;
30729;SDS011;17476;48.458;7.928;2023-06-05T12:03:38;0.00;;;0.00;;
30729;SDS011;17476;48.458;7.928;2023-06-05T12:06:04;0.00;;;0.00;;
30729;SDS011;17476;48.458;7.928;2023-06-05T12:08:31;0.00;;;0.00;;
30729;SDS011;17476;48.458;7.928;2023-06-05T12:11:00;0.00;;;0.00;;
30729;SDS011;17476;48.458;7.928;2023-06-05T12:16:35;0.00;;;0.00;;
30729;SDS011;17476;48.458;7.928;2023-06-05T12:19:10;0.00;;;0.00;;
30729;SDS011;17476;48.458;7.928;2023-06-05T12:21:38;0.00;;;0.00;;
30729;SDS011;17476;48.458;7.928;2023-06-05T12:24:04;0.00;;;0.00;;
30729;SDS011;17476;48.458;7.928;2023-06-05T12:29:27;0.00;;;0.00;;
30729;SDS011;17476;48.458;7.928;2023-06-05T12:31:56;0.00;;;0.00;;
30729;SDS011;17476;48.458;7.928;2023-06-05T12:34:43;0.00;;;0.00;;
30729;SDS011;17476;48.458;7.928;2023-06-05T12:37:20;0.00;;;0.00;;
30729;SDS011;17476;48.458;7.928;2023-06-05T12:39:56;0.00;;;0.00;;
30729;SDS011;17476;48.458;7.928;2023-06-05T12:42:26;0.00;;;0.00;;
30729;SDS011;17476;48.458;7.928;2023-06-05T12:44:53;0.00;;;0.00;;
30729;SDS011;17476;48.458;7.928;2023-06-05T12:47:20;0.00;;;0.00;;
30729;SDS011;17476;48.458;7.928;2023-06-05T12:49:46;0.00;;;0.00;;
30729;SDS011;17476;48.458;7.928;2023-06-05T12:52:12;0.00;;;0.00;;
30729;SDS011;17476;48.458;7.928;2023-06-05T12:54:39;0.00;;;0.00;;
30729;SDS011;17476;48.458;7.928;2023-06-05T12:57:05;0.00;;;0.00;;
30729;SDS011;17476;48.458;7.928;2023-06-05T12:59:32;0.00;;;0.00;;
30729;SDS011;17476;48.458;7.928;2023-06-05T13:01:59;0.00;;;0.00;;
30729;SDS011;17476;48.458;7.928;2023-06-05T13:04:25;0.00;;;0.00;;
30729;SDS011;17476;48.458;7.928;2023-06-05T13:06:51;0.00;;;0.00;;
30729;SDS011;17476;48.458;7.928;2023-06-05T13:09:19;0.00;;;0.00;;
30729;SDS011;17476;48.458;7.928;2023-06-05T13:11:44;0.00;;;0.00;;
30729;SDS011;17476;48.458;7.928;2023-06-05T13:14:10;0.00;;;0.00;;
30729;SDS011;17476;48.458;7.928;2023-06-05T13:16:36;0.00;;;0.00;;
30729;SDS011;17476;48.458;7.928;2023-06-05T13:19:02;0.00;;;0.00;;
30729;SDS011;17476;48.458;7.928;2023-06-05T13:21:28;0.00;;;0.00;;
30729;SDS011;17476;48.458;7.928;2023-06-05T13:23:53;0.00;;;0.00;;
30729;SDS011;17476;48.458;7.928;2023-06-05T13:26:19;0.00;;;0.00;;
30729;SDS011;17476;48.458;7.928;2023-06-05T13:28:45;0.00;;;0.00;;
30729;SDS011;17476;48.458;7.928;2023-06-05T13:31:11;0.00;;;0.00;;
30729;SDS011;17476;48.458;7.928;2023-06-05T13:33:39;0.00;;;0.00;;
30729;SDS011;17476;48.458;7.928;2023-06-05T13:36:06;0.00;;;0.00;;
30729;SDS011;17476;48.458;7.928;2023-06-05T13:38:33;0.00;;;0.00;;
30729;SDS011;17476;48.458;7.928;2023-06-05T13:41:02;0.00;;;0.00;;
30729;SDS011;17476;48.458;7.928;2023-06-05T13:43:30;0.00;;;0.00;;
30729;SDS011;17476;48.458;7.928;2023-06-05T13:46:00;0.00;;;0.00;;
30729;SDS011;17476;48.458;7.928;2023-06-05T13:48:27;0.00;;;0.00;;
30729;SDS011;17476;48.458;7.928;2023-06-05T13:50:53;0.00;;;0.00;;
30729;SDS011;17476;48.458;7.928;2023-06-05T13:53:19;0.00;;;0.00;;
30729;SDS011;17476;48.458;7.928;2023-06-05T13:55:45;0.00;;;0.00;;
30729;SDS011;17476;48.458;7.928;2023-06-05T13:58:11;0.00;;;0.00;;
30729;SDS011;17476;48.458;7.928;2023-06-05T14:00:36;0.00;;;0.00;;
30729;SDS011;17476;48.458;7.928;2023-06-05T14:03:02;0.00;;;0.00;;
30729;SDS011;17476;48.458;7.928;2023-06-05T14:05:28;0.00;;;0.00;;
30729;SDS011;17476;48.458;7.928;2023-06-05T14:07:55;0.00;;;0.00;;
30729;SDS011;17476;48.458;7.928;2023-06-05T14:10:22;0.00;;;0.00;;
30729;SDS011;17476;48.458;7.928;2023-06-05T14:12:50;0.00;;;0.00;;
30729;SDS011;17476;48.458;7.928;2023-06-05T14:15:17;0.00;;;0.00;;
30729;SDS011;17476;48.458;7.928;2023-06-05T14:17:48;0.00;;;0.00;;
30729;SDS011;17476;48.458;7.928;2023-06-05T14:20:15;0.00;;;0.00;;
30729;SDS011;17476;48.458;7.928;2023-06-05T14:22:42;0.00;;;0.00;;
30729;SDS011;17476;48.458;7.928;2023-06-05T14:25:08;0.00;;;0.00;;
30729;SDS011;17476;48.458;7.928;2023-06-05T14:27:35;0.00;;;0.00;;
30729;SDS011;17476;48.458;7.928;2023-06-05T14:30:02;0.00;;;0.00;;
30729;SDS011;17476;48.458;7.928;2023-06-05T14:32:28;0.00;;;0.00;;
30729;SDS011;17476;48.458;7.928;2023-06-05T14:34:54;0.00;;;0.00;;
30729;SDS011;17476;48.458;7.928;2023-06-05T14:37:19;0.00;;;0.00;;
30729;SDS011;17476;48.458;7.928;2023-06-05T14:39:45;0.00;;;0.00;;
30729;SDS011;17476;48.458;7.928;2023-06-05T14:42:11;0.00;;;0.00;;
30729;SDS011;17476;48.458;7.928;2023-06-05T14:44:37;0.00;;;0.00;;
30729;SDS011;17476;48.458;7.928;2023-06-05T14:47:03;0.00;;;0.00;;
30729;SDS011;17476;48.458;7.928;2023-06-05T14:49:33;0.00;;;0.00;;
30729;SDS011;17476;48.458;7.928;2023-06-05T14:51:58;0.00;;;0.00;;
30729;SDS011;17476;48.458;7.928;2023-06-05T14:54:24;0.00;;;0.00;;
30729;SDS011;17476;48.458;7.928;2023-06-05T14:56:50;0.00;;;0.00;;
30729;SDS011;17476;48.458;7.928;2023-06-05T14:59:16;0.00;;;0.00;;
30729;SDS011;17476;48.458;7.928;2023-06-05T15:01:41;0.00;;;0.00;;
30729;SDS011;17476;48.458;7.928;2023-06-05T15:04:07;0.00;;;0.00;;
30729;SDS011;17476;48.458;7.928;2023-06-05T15:06:33;0.00;;;0.00;;
30729;SDS011;17476;48.458;7.928;2023-06-05T15:08:59;0.00;;;0.00;;
30729;SDS011;17476;48.458;7.928;2023-06-05T15:11:25;0.00;;;0.00;;
30729;SDS011;17476;48.458;7.928;2023-06-05T15:13:50;0.00;;;0.00;;
30729;SDS011;17476;48.458;7.928;2023-06-05T15:16:16;0.00;;;0.00;;
30729;SDS011;17476;48.458;7.928;2023-06-05T15:18:42;0.00;;;0.00;;
30729;SDS011;17476;48.458;7.928;2023-06-05T15:21:08;0.00;;;0.00;;
30729;SDS011;17476;48.458;7.928;2023-06-05T15:23:34;0.00;;;0.00;;
30729;SDS011;17476;48.458;7.928;2023-06-05T15:25:59;0.00;;;0.00;;
30729;SDS011;17476;48.458;7.928;2023-06-05T15:28:25;0.00;;;0.00;;
30729;SDS011;17476;48.458;7.928;2023-06-05T15:30:51;0.00;;;0.00;;
30729;SDS011;17476;48.458;7.928;2023-06-05T15:33:17;0.00;;;0.00;;
30729;SDS011;17476;48.458;7.928;2023-06-05T15:35:43;0.00;;;0.00;;
30729;SDS011;17476;48.458;7.928;2023-06-05T15:38:10;0.00;;;0.00;;